createdAt,value
2022-12-17T00:02:22.460Z,17.90
2022-12-17T00:08:11.220Z,18.90
2022-12-17T00:13:39.590Z,17.90
2022-12-17T00:19:01.999Z,19.10
2022-12-17T00:24:25.473Z,18.60
2022-12-17T00:29:47.721Z,18.00
2022-12-17T00:35:10.274Z,17.90
2022-12-17T00:40:33.239Z,19.10
2022-12-17T00:45:56.011Z,18.30
2022-12-17T00:51:21.021Z,17.90
2022-12-17T00:56:44.490Z,18.10
2022-12-17T01:02:08.155Z,18.60
2022-12-17T01:07:31.238Z,18.10
2022-12-17T01:12:57.780Z,18.20
2022-12-17T01:18:20.439Z,17.90
2022-12-17T01:23:43.402Z,18.40
2022-12-17T01:29:06.264Z,19.30
2022-12-17T01:34:29.533Z,16.50
2022-12-17T01:39:53.532Z,18.10
2022-12-17T01:45:16.895Z,18.00
2022-12-17T01:50:41.498Z,17.40
2022-12-17T01:56:05.072Z,16.90
2022-12-17T02:01:27.847Z,17.00
2022-12-17T02:07:06.916Z,17.70
2022-12-17T02:12:55.105Z,16.30
2022-12-17T02:18:24.106Z,16.50
2022-12-17T02:24:06.104Z,16.30
2022-12-17T02:29:28.658Z,16.60
2022-12-17T02:34:51.008Z,17.80
2022-12-17T02:40:14.280Z,15.00
2022-12-17T02:45:38.221Z,17.60
2022-12-17T02:51:01.849Z,16.50
2022-12-17T02:56:25.221Z,18.10
2022-12-17T03:01:47.706Z,17.60
2022-12-17T03:07:16.572Z,17.90
2022-12-17T03:12:39.130Z,17.60
2022-12-17T03:18:01.581Z,16.00
2022-12-17T03:23:27.409Z,17.20
2022-12-17T03:28:50.065Z,17.80
2022-12-17T03:34:12.724Z,18.30
2022-12-17T03:39:35.486Z,17.80
2022-12-17T03:44:58.242Z,17.80
2022-12-17T03:50:20.640Z,17.70
2022-12-17T03:55:43.046Z,18.00
2022-12-17T04:01:08.011Z,18.40
2022-12-17T04:06:40.547Z,18.50
2022-12-17T04:17:27.989Z,18.40
2022-12-17T04:22:54.753Z,17.70
2022-12-17T04:28:25.699Z,17.40
2022-12-17T04:33:47.946Z,18.30
2022-12-17T04:39:10.192Z,17.50
2022-12-17T04:44:32.628Z,18.70
2022-12-17T04:49:55.404Z,20.00
2022-12-17T04:55:17.961Z,18.90
2022-12-17T05:00:40.318Z,19.20
2022-12-17T05:06:02.864Z,19.30
2022-12-17T05:11:26.037Z,19.30
2022-12-17T05:16:48.486Z,17.40
2022-12-17T05:22:12.950Z,19.50
2022-12-17T05:27:35.230Z,19.20
2022-12-17T05:32:59.014Z,18.30
2022-12-17T05:38:30.066Z,16.70
2022-12-17T05:43:52.517Z,17.80
2022-12-17T05:49:15.073Z,16.90
2022-12-17T05:54:37.524Z,17.90
2022-12-17T06:00:00.193Z,16.80
2022-12-17T06:05:23.249Z,18.80
2022-12-17T06:10:46.422Z,18.00
2022-12-17T06:16:09.938Z,18.00
2022-12-17T06:21:32.447Z,17.70
2022-12-17T06:26:55.519Z,17.70
2022-12-17T06:32:18.172Z,18.10
2022-12-17T06:37:40.419Z,18.30
2022-12-17T06:43:15.764Z,17.80
2022-12-17T06:48:38.017Z,17.40
2022-12-17T06:54:01.284Z,18.00
2022-12-17T06:59:28.765Z,16.50
2022-12-17T07:05:00.005Z,17.40
2022-12-17T07:10:34.031Z,17.70
2022-12-17T07:15:58.782Z,18.70
2022-12-17T07:21:27.213Z,17.90
2022-12-17T07:26:55.842Z,18.60
2022-12-17T07:32:19.435Z,17.20
2022-12-17T07:37:51.051Z,16.50
2022-12-17T07:43:16.632Z,16.70
2022-12-17T07:48:56.218Z,18.10
2022-12-17T07:54:41.755Z,17.80
2022-12-17T08:06:59.775Z,16.80
2022-12-17T08:13:30.144Z,18.80
2022-12-17T08:19:12.580Z,18.00
2022-12-17T08:24:43.068Z,18.70
2022-12-17T08:30:07.362Z,18.40
2022-12-17T08:35:34.318Z,17.90
2022-12-17T08:40:57.382Z,17.30
2022-12-17T08:46:33.660Z,18.60
2022-12-17T08:52:05.006Z,17.00
2022-12-17T08:57:32.666Z,18.80
2022-12-17T09:03:05.245Z,17.50
2022-12-17T09:08:50.328Z,17.80
2022-12-17T09:14:20.355Z,18.30
2022-12-17T09:19:46.197Z,17.30
2022-12-17T09:31:10.609Z,17.20
2022-12-17T09:36:39.296Z,17.00
2022-12-17T09:42:59.794Z,17.20
2022-12-17T09:49:10.846Z,17.20
2022-12-17T09:54:48.148Z,16.90
2022-12-17T10:12:25.039Z,16.70
2022-12-17T10:18:05.303Z,17.40
2022-12-17T10:23:50.874Z,17.50
2022-12-17T10:29:28.356Z,17.20
2022-12-17T10:35:13.911Z,17.70
2022-12-17T10:40:46.713Z,17.40
2022-12-17T10:46:24.484Z,17.40
2022-12-17T10:51:55.983Z,17.00
2022-12-17T10:57:45.836Z,17.40
2022-12-17T11:03:17.944Z,16.90
2022-12-17T11:08:52.654Z,15.50
2022-12-17T11:14:23.629Z,17.10
2022-12-17T11:20:00.688Z,16.80
2022-12-17T11:25:57.214Z,16.50
2022-12-17T11:31:52.337Z,17.70
2022-12-17T11:37:36.052Z,16.80
2022-12-17T11:43:12.425Z,17.10
2022-12-17T11:49:03.528Z,16.20
2022-12-17T11:54:33.961Z,17.30
2022-12-17T12:00:25.492Z,17.00
2022-12-17T12:06:10.755Z,16.80
2022-12-17T12:11:51.416Z,18.20
2022-12-17T12:17:42.528Z,17.20
2022-12-17T12:23:29.131Z,17.00
2022-12-17T12:28:51.684Z,16.40
2022-12-17T12:34:21.748Z,17.30
2022-12-17T12:45:48.459Z,15.60
2022-12-17T12:51:22.805Z,15.50
2022-12-17T12:56:52.100Z,17.80
2022-12-17T13:02:31.717Z,16.60
2022-12-17T13:07:41.417Z,16.50
2022-12-17T13:12:47.833Z,17.60
2022-12-17T13:18:16.585Z,16.80
2022-12-17T13:23:39.665Z,16.90
2022-12-17T13:29:27.593Z,17.90
2022-12-17T13:34:59.965Z,16.60
2022-12-17T13:40:19.963Z,16.20
2022-12-17T13:50:34.730Z,16.90
2022-12-17T13:55:40.394Z,17.60
2022-12-17T14:00:44.157Z,18.10
2022-12-17T14:05:48.657Z,16.90
2022-12-17T14:11:14.856Z,16.50
2022-12-17T14:16:20.662Z,16.30
2022-12-17T14:21:26.218Z,18.50
2022-12-17T14:26:30.238Z,17.90
2022-12-17T14:31:34.422Z,17.60
2022-12-17T14:36:46.955Z,16.30
2022-12-17T14:42:12.002Z,16.70
2022-12-17T14:47:21.358Z,17.60
2022-12-17T14:52:40.257Z,16.50
2022-12-17T14:57:54.788Z,16.10
2022-12-17T15:03:10.514Z,17.80
2022-12-17T15:08:51.027Z,17.80
2022-12-17T15:13:56.788Z,16.60
2022-12-17T15:19:01.820Z,17.60
2022-12-17T15:24:10.567Z,18.80
2022-12-17T15:29:14.774Z,18.40
2022-12-17T15:34:21.979Z,17.70
2022-12-17T15:39:26.720Z,17.50
2022-12-17T15:44:30.660Z,18.80
2022-12-17T15:49:38.367Z,18.00
2022-12-17T15:54:45.163Z,17.80
2022-12-17T15:59:51.479Z,16.60
2022-12-17T16:04:55.582Z,21.30
2022-12-17T16:10:04.751Z,18.60
2022-12-17T16:15:12.011Z,18.50
2022-12-17T16:20:15.973Z,18.40
2022-12-17T16:25:21.084Z,18.50
2022-12-17T16:30:24.748Z,18.10
2022-12-17T16:35:31.339Z,17.60
2022-12-17T16:40:54.310Z,15.60
2022-12-17T16:46:00.003Z,17.90
2022-12-17T16:51:25.863Z,17.00
2022-12-17T16:56:38.030Z,16.60
2022-12-17T17:01:46.469Z,16.50
2022-12-17T17:06:53.660Z,16.30
2022-12-17T17:11:59.271Z,15.20
2022-12-17T17:17:02.957Z,15.50
2022-12-17T17:22:06.697Z,16.20
2022-12-17T17:27:12.261Z,14.60
2022-12-17T17:32:17.816Z,14.20
2022-12-17T17:37:22.664Z,14.50
2022-12-17T17:42:26.493Z,13.50
2022-12-17T17:47:32.373Z,14.20
2022-12-17T17:52:39.164Z,13.10
2022-12-17T17:57:46.076Z,14.70
2022-12-17T18:02:51.620Z,14.50
2022-12-17T18:07:55.889Z,13.70
2022-12-17T18:13:20.367Z,13.20
2022-12-17T18:18:25.521Z,13.40
2022-12-17T18:23:31.752Z,12.70
2022-12-17T18:28:36.521Z,13.50
2022-12-17T18:33:43.074Z,13.10
2022-12-17T18:38:50.758Z,13.40
2022-12-17T18:43:55.201Z,12.30
2022-12-17T18:49:01.121Z,12.80
2022-12-17T18:54:10.196Z,12.90
2022-12-17T18:59:17.151Z,13.40
2022-12-17T19:04:21.976Z,13.40
2022-12-17T19:09:31.071Z,12.90
2022-12-17T19:14:35.647Z,12.30
2022-12-17T19:19:39.390Z,12.70
2022-12-17T19:24:43.322Z,11.40
2022-12-17T19:29:49.720Z,12.30
2022-12-17T19:35:06.740Z,12.40
2022-12-17T19:40:20.965Z,12.20
2022-12-17T19:45:44.158Z,11.20
2022-12-17T19:51:08.402Z,12.10
2022-12-17T19:56:29.179Z,12.60
2022-12-17T20:01:39.227Z,11.20
2022-12-17T20:06:51.526Z,10.60
2022-12-17T20:12:00.138Z,11.00
2022-12-17T20:17:05.598Z,11.50
2022-12-17T20:22:17.246Z,11.70
2022-12-17T20:27:26.663Z,11.60
2022-12-17T20:32:34.010Z,10.90
2022-12-17T20:37:45.852Z,10.50
2022-12-17T20:43:06.462Z,11.20
2022-12-17T20:48:15.197Z,10.60
2022-12-17T20:53:22.571Z,10.20
2022-12-17T20:58:34.483Z,11.60
2022-12-17T21:03:47.153Z,11.90
2022-12-17T21:09:11.761Z,10.80
2022-12-17T21:14:21.478Z,11.10
2022-12-17T21:19:42.377Z,12.30
2022-12-17T21:25:06.408Z,10.50
2022-12-17T21:42:36.690Z,10.40
2022-12-17T21:59:11.827Z,11.30
2022-12-17T22:04:35.779Z,11.00
2022-12-17T22:10:42.719Z,13.00
2022-12-17T22:16:15.102Z,12.20
2022-12-17T22:21:28.964Z,12.20
2022-12-17T22:26:36.668Z,13.70
2022-12-17T22:32:00.347Z,12.20
2022-12-17T22:40:53.390Z,13.40
2022-12-17T22:44:37.716Z,12.50
2022-12-17T22:48:18.455Z,10.10
2022-12-17T22:53:24.019Z,12.90
2022-12-17T23:03:46.056Z,11.30
2022-12-17T23:08:51.363Z,12.10
2022-12-17T23:13:57.594Z,11.00
2022-12-17T23:19:04.660Z,11.40
2022-12-17T23:24:18.301Z,10.50
2022-12-17T23:29:25.810Z,10.40
2022-12-17T23:34:44.175Z,11.80
2022-12-17T23:39:51.894Z,10.50
2022-12-17T23:45:04.309Z,10.30
2022-12-17T23:50:11.501Z,10.10
2022-12-17T23:55:24.372Z,10.00
